Time;durP1;ratioP1;P1;durP2;ratioP2;P2;SDS_P1;SDS_P2;PMS_P1;PMS_P2;Temp;Humidity;BMP_temperature;BMP_pressure;BME280_temperature;BME280_humidity;BME280_pressure;Samples;Min_cycle;Max_cycle;Signal;HPM_P1;HPM_P2
2022/05/17 00:03:02;;;;;;;2.83;1.40;;;;;;;8.79;100.00;98188.03;4433126;28;15286878;-42
2022/05/17 00:05:28;;;;;;;1.75;1.30;;;;;;;8.77;100.00;98187.25;4965215;28;20303;-42
2022/05/17 00:07:54;;;;;;;1.92;1.30;;;;;;;8.80;100.00;98184.50;4950626;28;20462;-42
2022/05/17 00:10:21;;;;;;;1.90;1.40;;;;;;;8.69;100.00;98182.44;4966521;28;20153;-42
2022/05/17 00:12:59;;;;;;;1.55;1.27;;;;;;;8.71;100.00;98177.19;4967012;28;20047;-43
2022/05/17 00:15:25;;;;;;;1.40;1.10;;;;;;;8.70;100.00;98170.31;4967164;28;20057;-43
2022/05/17 00:17:52;;;;;;;2.10;1.55;;;;;;;8.69;100.00;98169.50;4966389;28;20043;-43
2022/05/17 00:20:19;;;;;;;1.92;1.33;;;;;;;8.69;100.00;98172.09;4930989;29;20047;-42
2022/05/17 00:22:47;;;;;;;2.28;1.60;;;;;;;8.65;100.00;98167.13;4950964;28;20130;-42
2022/05/17 00:25:15;;;;;;;1.23;1.02;;;;;;;8.64;100.00;98157.69;4966989;28;20054;-44
2022/05/17 00:27:41;;;;;;;1.90;1.27;;;;;;;8.77;100.00;98157.00;4950955;28;20074;-43
2022/05/17 00:30:08;;;;;;;1.67;1.38;;;;;;;8.79;100.00;98160.31;4966974;28;20510;-43
2022/05/17 00:32:33;;;;;;;2.33;1.63;;;;;;;8.78;100.00;98163.03;4966093;28;20065;-43
2022/05/17 00:34:59;;;;;;;2.10;1.63;;;;;;;8.86;100.00;98159.09;4966997;28;20122;-42
2022/05/17 00:37:27;;;;;;;1.70;1.00;;;;;;;8.86;100.00;98156.50;4966147;28;20043;-44
2022/05/17 00:39:56;;;;;;;1.52;1.33;;;;;;;8.82;100.00;98149.81;5060366;27;20592;-43
2022/05/17 00:42:22;;;;;;;1.48;1.23;;;;;;;8.77;100.00;98153.56;5144343;27;20125;-43
2022/05/17 00:44:48;;;;;;;1.80;1.40;;;;;;;8.79;100.00;98154.34;5152536;27;20046;-42
2022/05/17 00:47:34;;;;;;;1.92;1.30;;;;;;;8.82;100.00;98148.97;5170197;27;20125;-43
2022/05/17 00:50:06;;;;;;;1.60;1.30;;;;;;;8.90;100.00;98145.06;5158531;27;20058;-44
2022/05/17 00:52:39;;;;;;;1.40;1.10;;;;;;;8.97;100.00;98149.94;5189660;27;20128;-42
2022/05/17 00:55:10;;;;;;;2.80;1.45;;;;;;;8.88;100.00;98144.31;5156009;27;20148;-43
2022/05/17 00:57:42;;;;;;;2.00;1.17;;;;;;;8.89;100.00;98150.34;5152325;27;20473;-43
2022/05/17 01:00:12;;;;;;;2.50;1.35;;;;;;;8.95;100.00;98144.81;5151006;27;20039;-44
2022/05/17 01:02:49;;;;;;;1.35;1.23;;;;;;;8.97;100.00;98149.94;5165176;27;20513;-43
2022/05/17 01:05:16;;;;;;;2.35;1.23;;;;;;;8.92;100.00;98143.25;5169196;27;20424;-43
2022/05/17 01:07:44;;;;;;;2.47;1.50;;;;;;;8.93;100.00;98149.25;5169748;27;20040;-43
2022/05/17 01:10:11;;;;;;;2.90;1.50;;;;;;;9.01;100.00;98154.03;5165412;27;20054;-42
2022/05/17 01:12:38;;;;;;;2.30;1.17;;;;;;;9.00;100.00;98153.22;5145021;27;20065;-42
2022/05/17 01:15:06;;;;;;;2.22;1.40;;;;;;;8.98;100.00;98139.50;5120135;27;20072;-43
2022/05/17 01:17:34;;;;;;;2.80;1.33;;;;;;;8.92;100.00;98138.06;5162470;27;20108;-44
2022/05/17 01:20:04;;;;;;;1.70;1.40;;;;;;;8.93;100.00;98138.91;5171676;27;20046;-42
2022/05/17 01:22:30;;;;;;;2.25;1.38;;;;;;;8.87;100.00;98128.84;5156808;27;20037;-44
2022/05/17 01:24:55;;;;;;;1.65;1.35;;;;;;;8.86;100.00;98140.13;5171692;27;20035;-44
2022/05/17 01:27:25;;;;;;;2.03;1.40;;;;;;;8.86;100.00;98145.31;5139219;27;20446;-43
2022/05/17 01:29:51;;;;;;;2.33;1.70;;;;;;;8.85;100.00;98139.28;5176205;27;20121;-42
2022/05/17 01:32:17;;;;;;;2.95;1.70;;;;;;;8.92;100.00;98137.22;5124247;27;20121;-43
2022/05/17 01:34:44;;;;;;;2.03;1.38;;;;;;;8.87;100.00;98140.06;5170922;27;20038;-43
2022/05/17 01:37:11;;;;;;;1.67;1.48;;;;;;;8.81;100.00;98140.38;5139145;27;20039;-43
2022/05/17 01:39:36;;;;;;;2.75;1.42;;;;;;;8.81;100.00;98132.59;5146756;27;20030;-43
2022/05/17 01:42:03;;;;;;;2.20;1.50;;;;;;;8.70;100.00;98121.94;5162809;27;20048;-43
2022/05/17 01:44:30;;;;;;;2.65;1.40;;;;;;;8.85;100.00;98139.28;5122242;27;20088;-43
2022/05/17 01:46:55;;;;;;;2.15;1.48;;;;;;;8.93;100.00;98141.50;5175707;27;20037;-45
2022/05/17 01:49:21;;;;;;;8.43;2.53;;;;;;;8.79;100.00;98131.03;5168166;27;20037;-43
2022/05/17 01:51:47;;;;;;;2.70;1.85;;;;;;;8.95;100.00;98137.03;5173478;27;20053;-44
2022/05/17 01:54:13;;;;;;;3.88;1.60;;;;;;;8.87;100.00;98115.91;5175786;27;20065;-44
2022/05/17 01:56:39;;;;;;;2.50;1.60;;;;;;;8.94;100.00;98127.63;5175553;27;20053;-44
2022/05/17 01:59:05;;;;;;;3.92;2.00;;;;;;;8.95;100.00;98151.78;5153895;27;20046;-44
2022/05/17 02:01:30;;;;;;;3.20;1.73;;;;;;;9.01;100.00;98143.66;5175222;27;20527;-44
2022/05/17 02:03:56;;;;;;;2.05;1.58;;;;;;;8.87;100.00;98118.50;5174753;27;20037;-44
2022/05/17 02:06:23;;;;;;;1.85;1.63;;;;;;;8.96;100.00;98136.13;5150266;27;20042;-42
2022/05/17 02:08:49;;;;;;;4.13;1.98;;;;;;;9.02;100.00;98132.38;5153328;27;20042;-43
2022/05/17 02:11:15;;;;;;;2.03;1.83;;;;;;;9.09;100.00;98124.22;5154520;27;20035;-43
2022/05/17 02:13:41;;;;;;;2.05;1.67;;;;;;;9.01;100.00;98134.13;5154324;27;20049;-44
2022/05/17 02:16:09;;;;;;;2.17;1.63;;;;;;;9.03;100.00;98127.13;5137079;27;20369;-46
2022/05/17 02:18:35;;;;;;;2.80;1.70;;;;;;;9.10;100.00;98125.06;5149028;27;20057;-44
2022/05/17 02:21:02;;;;;;;3.45;1.55;;;;;;;9.15;100.00;98128.25;5172136;27;20038;-43
2022/05/17 02:23:28;;;;;;;4.32;2.60;;;;;;;9.13;100.00;98127.47;5136736;27;20428;-43
2022/05/17 02:25:54;;;;;;;3.92;1.38;;;;;;;9.04;100.00;98105.47;5154085;27;20030;-45
2022/05/17 02:28:20;;;;;;;4.80;2.33;;;;;;;9.00;100.00;98119.53;5166887;27;20045;-43
2022/05/17 02:30:46;;;;;;;3.00;1.75;;;;;;;8.97;100.00;98118.84;5154210;27;20035;-43
2022/05/17 02:33:12;;;;;;;3.58;2.08;;;;;;;8.99;100.00;98119.59;5153797;27;20094;-44
2022/05/17 02:35:39;;;;;;;1.60;1.40;;;;;;;8.88;100.00;98123.59;5159305;27;20042;-44
2022/05/17 02:38:05;;;;;;;1.50;1.08;;;;;;;8.93;100.00;98113.81;5168743;27;20066;-43
2022/05/17 02:40:31;;;;;;;2.33;1.70;;;;;;;9.01;100.00;98121.19;5172016;27;20532;-52
2022/05/17 02:42:57;;;;;;;2.88;1.42;;;;;;;9.05;100.00;98117.53;5174713;27;20045;-44
2022/05/17 02:45:22;;;;;;;2.75;1.67;;;;;;;9.06;100.00;98119.19;5172839;27;20034;-43
2022/05/17 02:47:48;;;;;;;2.85;1.33;;;;;;;9.03;100.00;98110.75;5169425;27;20497;-43
2022/05/17 02:50:14;;;;;;;2.35;1.60;;;;;;;8.96;100.00;98112.81;5155752;27;20030;-44
2022/05/17 02:52:40;;;;;;;2.30;1.70;;;;;;;9.03;100.00;98118.50;5154944;27;20046;-42
2022/05/17 02:55:07;;;;;;;7.18;1.83;;;;;;;9.14;100.00;98118.78;5135023;27;20042;-44
2022/05/17 02:57:34;;;;;;;1.92;1.40;;;;;;;9.14;100.00;98114.44;5162363;27;20042;-43
2022/05/17 03:00:00;;;;;;;2.15;1.70;;;;;;;9.10;100.00;98120.72;5153589;27;20039;-44
2022/05/17 03:02:26;;;;;;;2.45;1.92;;;;;;;9.16;100.00;98124.72;5165081;27;20429;-43
2022/05/17 03:04:52;;;;;;;2.78;1.50;;;;;;;9.27;100.00;98119.78;5141116;27;20038;-43
2022/05/17 03:07:18;;;;;;;2.22;1.60;;;;;;;9.35;100.00;98131.44;5142297;27;20580;-43
2022/05/17 03:09:43;;;;;;;1.95;1.40;;;;;;;9.32;100.00;98122.97;5149894;27;20042;-42
2022/05/17 03:12:10;;;;;;;2.25;1.63;;;;;;;9.30;100.00;98130.00;5174147;27;20394;-42
2022/05/17 03:14:36;;;;;;;1.60;1.17;;;;;;;9.36;100.00;98121.91;5173870;27;20042;-42
2022/05/17 03:17:11;;;;;;;3.30;1.60;;;;;;;9.34;100.00;98119.38;5163248;27;20041;-44
2022/05/17 03:19:37;;;;;;;3.50;1.67;;;;;;;9.33;100.00;98112.50;5172042;27;20038;-43
2022/05/17 03:22:02;;;;;;;2.30;1.55;;;;;;;9.43;100.00;98119.78;5161239;27;20720;-43
2022/05/17 03:24:29;;;;;;;2.22;1.48;;;;;;;9.41;100.00;98117.31;5117467;27;20081;-43
2022/05/17 03:26:54;;;;;;;2.15;1.60;;;;;;;9.39;100.00;98100.97;5134961;27;20080;-43
2022/05/17 03:29:20;;;;;;;2.05;1.45;;;;;;;9.58;100.00;98114.59;5133209;27;20046;-43
2022/05/17 03:31:46;;;;;;;1.75;1.40;;;;;;;9.59;100.00;98120.63;5151103;27;20077;-41
2022/05/17 03:34:15;;;;;;;2.15;1.77;;;;;;;9.57;100.00;98119.88;5159716;27;20467;-42
2022/05/17 03:36:41;;;;;;;1.88;1.40;;;;;;;9.60;100.00;98117.94;5147202;27;20034;-42
2022/05/17 03:39:07;;;;;;;3.20;1.60;;;;;;;9.65;100.00;98115.94;5173301;27;20132;-42
2022/05/17 03:41:32;;;;;;;1.42;1.30;;;;;;;9.73;100.00;98120.72;5138421;27;20045;-44
2022/05/17 03:43:58;;;;;;;2.38;1.35;;;;;;;9.76;100.00;98115.34;5152733;27;20469;-43
2022/05/17 03:46:24;;;;;;;2.70;1.35;;;;;;;9.78;100.00;98122.13;5152608;27;20035;-43
2022/05/17 03:48:50;;;;;;;1.48;1.20;;;;;;;9.76;100.00;98118.78;5164906;27;20036;-43
2022/05/17 03:51:18;;;;;;;1.63;1.40;;;;;;;9.82;100.00;98116.75;5173675;27;20041;-43
2022/05/17 03:53:44;;;;;;;2.70;1.35;;;;;;;9.79;100.00;98131.56;5171232;27;20121;-42
2022/05/17 03:56:11;;;;;;;2.35;1.30;;;;;;;9.87;100.00;98128.56;5154802;27;20469;-42
2022/05/17 03:58:37;;;;;;;2.72;1.30;;;;;;;9.93;100.00;98125.63;5152716;27;20043;-42
2022/05/17 04:01:03;;;;;;;1.67;1.27;;;;;;;9.98;100.00;98127.94;5152636;27;20034;-41
2022/05/17 04:03:29;;;;;;;1.48;1.38;;;;;;;10.02;100.00;98127.69;5158572;27;20429;-42
2022/05/17 04:05:55;;;;;;;1.45;1.30;;;;;;;10.07;100.00;98128.25;5116360;27;20047;-42
2022/05/17 04:08:21;;;;;;;1.92;1.30;;;;;;;10.09;100.00;98125.59;5166948;27;20576;-44
2022/05/17 04:10:46;;;;;;;1.63;1.48;;;;;;;10.11;100.00;98121.13;5173223;27;20042;-43
2022/05/17 04:13:13;;;;;;;1.63;1.30;;;;;;;10.26;100.00;98124.66;5160217;27;20042;-43
2022/05/17 04:15:38;;;;;;;1.50;1.17;;;;;;;10.25;100.00;98126.41;5133772;27;20071;-43
2022/05/17 04:18:04;;;;;;;2.05;1.23;;;;;;;10.25;100.00;98122.97;5135000;27;20035;-43
2022/05/17 04:20:31;;;;;;;2.78;1.50;;;;;;;10.30;100.00;98118.34;5152353;27;20125;-43
2022/05/17 04:22:57;;;;;;;3.10;1.52;;;;;;;10.29;100.00;98119.25;5156895;27;20034;-44
2022/05/17 04:25:24;;;;;;;4.45;2.58;;;;;;;10.36;100.00;98124.03;5154757;27;20042;-43
2022/05/17 04:27:50;;;;;;;3.10;1.40;;;;;;;10.31;100.00;98109.63;5161306;27;20065;-42
2022/05/17 04:30:17;;;;;;;2.13;1.40;;;;;;;10.37;100.00;98112.69;5167617;27;20460;-42
2022/05/17 04:32:46;;;;;;;2.27;1.30;;;;;;;10.38;100.00;98118.72;5171416;27;20466;-43
2022/05/17 04:35:13;;;;;;;2.45;1.08;;;;;;;10.42;100.00;98121.03;5152404;27;20030;-45
2022/05/17 04:37:39;;;;;;;1.55;1.40;;;;;;;10.44;100.00;98119.19;5153778;27;20087;-44
2022/05/17 04:40:08;;;;;;;5.50;2.13;;;;;;;10.53;100.00;98120.41;5154646;27;20066;-43
2022/05/17 04:42:38;;;;;;;3.28;1.48;;;;;;;10.59;100.00;98122.66;5152726;27;20043;-43
2022/05/17 04:45:05;;;;;;;2.58;1.40;;;;;;;10.53;100.00;98117.81;5139036;27;20037;-42
2022/05/17 04:47:31;;;;;;;2.47;1.50;;;;;;;10.52;100.00;98121.38;5168123;27;20094;-43
2022/05/17 04:49:57;;;;;;;3.90;1.50;;;;;;;10.47;100.00;98105.19;5156121;27;20454;-42
2022/05/17 04:52:24;;;;;;;2.70;1.40;;;;;;;10.52;100.00;98121.38;5156289;27;20066;-43
2022/05/17 04:54:50;;;;;;;2.30;1.50;;;;;;;10.56;100.00;98122.84;5126060;27;20122;-42
2022/05/17 04:57:17;;;;;;;3.70;1.27;;;;;;;10.59;100.00;98113.09;5174149;27;20042;-43
2022/05/17 04:59:43;;;;;;;2.50;1.30;;;;;;;10.62;100.00;98120.69;5134768;27;20034;-44
2022/05/17 05:02:09;;;;;;;1.63;1.40;;;;;;;10.59;100.00;98117.47;5163971;27;20050;-42
2022/05/17 05:04:38;;;;;;;1.92;1.30;;;;;;;10.57;100.00;98124.53;5157558;27;20034;-42
2022/05/17 05:07:05;;;;;;;1.50;1.35;;;;;;;10.60;100.00;98129.53;5156067;27;20410;-43
2022/05/17 05:09:31;;;;;;;2.08;1.42;;;;;;;10.59;100.00;98130.44;5175404;27;20030;-43
2022/05/17 05:11:57;;;;;;;1.85;1.50;;;;;;;10.63;100.00;98130.19;5154102;27;20046;-43
2022/05/17 05:14:23;;;;;;;2.03;1.80;;;;;;;10.63;100.00;98137.13;5165455;27;20042;-43
2022/05/17 05:16:49;;;;;;;2.75;1.60;;;;;;;10.62;100.00;98128.50;5157749;27;20557;-44
2022/05/17 05:19:15;;;;;;;3.05;1.70;;;;;;;10.62;100.00;98130.28;5121194;27;20467;-43
2022/05/17 05:21:41;;;;;;;4.18;1.58;;;;;;;10.64;100.00;98136.22;5155650;27;20520;-44
2022/05/17 05:24:07;;;;;;;4.70;2.72;;;;;;;10.68;100.00;98142.91;5163570;27;20527;-44
2022/05/17 05:26:33;;;;;;;2.20;1.70;;;;;;;10.68;100.00;98135.09;5175807;27;20053;-41
2022/05/17 05:29:00;;;;;;;2.88;1.80;;;;;;;10.68;100.00;98139.50;5163408;27;20038;-43
2022/05/17 05:31:26;;;;;;;5.57;1.90;;;;;;;10.70;100.00;98143.66;5151631;27;20099;-44
2022/05/17 05:33:51;;;;;;;5.70;2.00;;;;;;;10.74;100.00;98139.09;5165638;27;20042;-42
2022/05/17 05:36:17;;;;;;;2.70;1.80;;;;;;;10.75;100.00;98143.38;5156203;27;20044;-44
2022/05/17 05:38:43;;;;;;;3.17;1.65;;;;;;;10.73;100.00;98140.03;5155723;27;20531;-43
2022/05/17 05:41:13;;;;;;;1.98;1.67;;;;;;;10.74;100.00;98139.09;5173764;27;20074;-43
2022/05/17 05:43:39;;;;;;;3.83;1.80;;;;;;;10.75;100.00;98144.22;5154929;27;20066;-43
2022/05/17 05:46:05;;;;;;;5.72;3.47;;;;;;;10.72;100.00;98130.56;5136795;27;20042;-43
2022/05/17 05:48:31;;;;;;;3.40;1.42;;;;;;;10.85;100.00;98145.34;5167197;27;20512;-43
2022/05/17 05:50:57;;;;;;;2.60;2.15;;;;;;;10.83;100.00;98138.56;5157192;27;20038;-45
2022/05/17 05:53:23;;;;;;;2.10;1.60;;;;;;;10.98;100.00;98145.44;5175182;27;20148;-43
2022/05/17 05:56:02;;;;;;;2.90;1.90;;;;;;;11.05;100.00;98149.31;5161473;27;20087;-43
2022/05/17 05:58:34;;;;;;;3.87;2.20;;;;;;;11.10;100.00;98147.28;5174172;27;20421;-42
2022/05/17 06:01:00;;;;;;;3.13;1.80;;;;;;;11.16;100.00;98159.06;5169693;27;20045;-42
2022/05/17 06:03:26;;;;;;;3.40;1.73;;;;;;;11.21;100.00;98151.81;5161017;27;20058;-41
2022/05/17 06:05:53;;;;;;;2.15;1.63;;;;;;;11.25;100.00;98161.13;5159903;27;20125;-43
2022/05/17 06:08:19;;;;;;;2.28;1.77;;;;;;;11.25;100.00;98161.94;5144983;27;20577;-43
2022/05/17 06:10:45;;;;;;;5.80;3.83;;;;;;;11.29;100.00;98162.63;5160840;27;20041;-42
2022/05/17 06:13:14;;;;;;;1.88;1.70;;;;;;;11.33;100.00;98158.88;5156592;27;20034;-42
2022/05/17 06:15:40;;;;;;;3.78;1.60;;;;;;;11.35;100.00;98155.28;5161101;27;20176;-42
2022/05/17 06:18:07;;;;;;;2.72;2.08;;;;;;;11.32;100.00;98162.41;5164808;27;20137;-44
2022/05/17 06:20:34;;;;;;;4.97;3.20;;;;;;;11.31;100.00;98171.13;5138848;27;20034;-42
2022/05/17 06:22:59;;;;;;;3.22;1.77;;;;;;;11.30;100.00;98159.94;5144439;27;20042;-45
2022/05/17 06:25:25;;;;;;;5.57;2.47;;;;;;;11.22;100.00;98154.34;5157435;27;20038;-44
2022/05/17 06:27:51;;;;;;;4.82;2.42;;;;;;;11.29;100.00;98167.81;5149329;27;20043;-43
2022/05/17 06:30:17;;;;;;;3.22;1.88;;;;;;;11.25;100.00;98164.53;5136060;27;20042;-43
2022/05/17 06:32:43;;;;;;;4.35;2.35;;;;;;;11.27;100.00;98164.47;5154827;27;20043;-44
2022/05/17 06:35:10;;;;;;;7.32;2.67;;;;;;;11.20;100.00;98147.56;5161950;27;20041;-42
2022/05/17 06:37:37;;;;;;;4.10;2.60;;;;;;;11.33;100.00;98166.69;5133774;27;20058;-45
2022/05/17 06:40:07;;;;;;;3.33;2.40;;;;;;;11.27;100.00;98159.25;5153752;27;20069;-43
2022/05/17 06:42:33;;;;;;;3.55;2.35;;;;;;;11.40;100.00;98168.84;5141339;27;20057;-43
2022/05/17 06:44:59;;;;;;;5.00;2.88;;;;;;;11.41;100.00;98175.69;5170910;27;20045;-42
2022/05/17 06:47:26;;;;;;;4.55;3.13;;;;;;;11.40;100.00;98168.00;5136909;27;20521;-44
2022/05/17 06:49:52;;;;;;;5.05;2.47;;;;;;;11.51;100.00;98170.78;5170178;27;20030;-46
2022/05/17 06:52:23;;;;;;;4.15;2.63;;;;;;;11.57;100.00;98170.38;5155621;27;20048;-43
2022/05/17 06:54:49;;;;;;;3.65;2.58;;;;;;;11.56;100.00;98171.31;5135518;27;20463;-44
2022/05/17 06:57:16;;;;;;;9.85;5.85;;;;;;;11.62;100.00;98176.13;5138338;27;20525;-43
2022/05/17 06:59:44;;;;;;;9.18;5.32;;;;;;;11.63;100.00;98176.97;5153190;27;20462;-44
2022/05/17 07:02:11;;;;;;;4.80;2.67;;;;;;;11.62;100.00;98186.53;5145003;27;20054;-42
2022/05/17 07:04:37;;;;;;;3.80;2.42;;;;;;;11.56;100.00;98183.50;5145195;27;20038;-43
2022/05/17 07:07:04;;;;;;;3.28;2.55;;;;;;;11.49;100.00;98188.22;5127099;27;20042;-42
2022/05/17 07:09:30;;;;;;;4.50;2.63;;;;;;;11.44;100.00;98195.50;5166255;27;20034;-43
2022/05/17 07:14:40;;;;;;;4.97;3.17;;;;;;;11.43;100.00;98196.41;5153050;27;20035;-43
2022/05/17 07:17:12;;;;;;;7.05;3.85;;;;;;;11.43;100.00;98199.84;5158863;27;20046;-44
2022/05/17 07:19:37;;;;;;;6.32;3.60;;;;;;;11.39;100.00;98187.97;5141494;27;20054;-44
2022/05/17 07:22:05;;;;;;;4.03;3.15;;;;;;;11.46;100.00;98207.47;5167293;27;20046;-47
2022/05/17 07:24:32;;;;;;;6.57;3.45;;;;;;;11.48;100.00;98216.03;5162379;27;20457;-45
2022/05/17 07:27:01;;;;;;;6.20;3.35;;;;;;;11.41;100.00;98201.72;5106255;27;20034;-44
2022/05/17 07:29:27;;;;;;;4.90;3.63;;;;;;;11.52;100.00;98214.06;5171398;27;20034;-44
2022/05/17 07:31:53;;;;;;;5.05;3.33;;;;;;;11.54;100.00;98216.56;5152634;27;20041;-44
2022/05/17 07:34:19;;;;;;;4.63;3.33;;;;;;;11.55;100.00;98216.50;5151516;27;20078;-44
2022/05/17 07:36:45;;;;;;;4.32;3.20;;;;;;;11.56;100.00;98225.97;5165682;27;20039;-43
2022/05/17 07:39:11;;;;;;;6.65;4.05;;;;;;;11.43;100.00;98209.44;5142627;27;20039;-44
2022/05/17 07:41:37;;;;;;;6.85;3.88;;;;;;;11.47;100.00;98210.91;5158802;27;20404;-42
2022/05/17 07:44:04;;;;;;;5.35;3.15;;;;;;;11.52;100.00;98221.03;5161257;27;20060;-43
2022/05/17 07:46:31;;;;;;;4.93;3.25;;;;;;;11.57;100.00;98213.78;5157842;27;20046;-43
2022/05/17 07:48:57;;;;;;;5.82;3.70;;;;;;;11.57;100.00;98185.97;5155685;27;20121;-42
2022/05/17 07:51:23;;;;;;;6.32;3.80;;;;;;;11.81;100.00;98201.88;5144083;27;20035;-41
2022/05/17 07:53:48;;;;;;;4.30;3.40;;;;;;;11.95;100.00;98193.19;5155134;27;20038;-42
2022/05/17 07:56:14;;;;;;;4.55;3.83;;;;;;;12.19;100.00;98192.47;5158102;27;20044;-43
2022/05/17 07:58:42;;;;;;;7.40;4.18;;;;;;;12.59;100.00;98203.72;5162054;27;20439;-44
2022/05/17 08:01:08;;;;;;;7.75;4.28;;;;;;;13.08;100.00;98210.88;5156116;27;20543;-42
2022/05/17 08:03:36;;;;;;;4.20;3.65;;;;;;;13.33;100.00;98210.06;5160608;27;20054;-43
2022/05/17 08:06:02;;;;;;;6.60;3.65;;;;;;;13.50;100.00;98194.88;5141939;27;20080;-43
2022/05/17 08:08:28;;;;;;;4.00;3.33;;;;;;;13.58;100.00;98205.63;5163157;27;20359;-43
2022/05/17 08:10:54;;;;;;;5.78;3.80;;;;;;;13.46;100.00;98211.69;5163052;27;20082;-41
2022/05/17 08:13:22;;;;;;;5.00;4.00;;;;;;;13.40;100.00;98206.91;5157330;27;20069;-42
2022/05/17 08:15:49;;;;;;;5.32;3.75;;;;;;;13.40;100.00;98211.28;5160539;27;20493;-42
2022/05/17 08:18:15;;;;;;;6.65;3.90;;;;;;;13.41;100.00;98208.56;5144037;27;20102;-43
2022/05/17 08:20:43;;;;;;;5.38;3.90;;;;;;;13.50;100.00;98209.72;5167296;27;20034;-42
2022/05/17 08:23:09;;;;;;;5.57;4.20;;;;;;;13.55;100.00;98211.06;5146210;27;20419;-41
2022/05/17 08:28:20;;;;;;;6.25;4.18;;;;;;;13.46;100.00;98216.09;5162923;27;20138;-42
2022/05/17 08:30:47;;;;;;;5.35;3.45;;;;;;;13.27;100.00;98192.22;5126621;27;20536;-42
2022/05/17 08:33:14;;;;;;;4.90;3.40;;;;;;;13.24;100.00;98221.13;5145208;27;20048;-42
2022/05/17 08:35:41;;;;;;;4.73;3.67;;;;;;;13.05;100.00;98224.94;5149418;27;20035;-43
2022/05/17 08:38:07;;;;;;;5.30;4.40;;;;;;;12.90;100.00;98228.59;5174493;27;20045;-43
2022/05/17 08:40:45;;;;;;;5.10;3.90;;;;;;;12.76;100.00;98236.50;5175266;27;20038;-44
2022/05/17 08:43:30;;;;;;;6.72;5.10;;;;;;;12.67;100.00;98239.69;5138772;27;20046;-44
2022/05/17 08:46:03;;;;;;;8.38;4.60;;;;;;;12.67;100.00;98235.31;5148351;27;20046;-48
2022/05/17 08:48:33;;;;;;;6.15;4.45;;;;;;;12.64;100.00;98243.38;5147997;27;20129;-45
2022/05/17 08:50:59;;;;;;;5.50;4.55;;;;;;;12.55;100.00;98241.38;5161145;27;20034;-42
2022/05/17 08:53:25;;;;;;;7.40;4.60;;;;;;;12.49;100.00;98238.31;5145475;27;20039;-44
2022/05/17 08:55:52;;;;;;;9.23;4.90;;;;;;;12.35;100.00;98249.66;5160719;27;20043;-45
2022/05/17 08:58:21;;;;;;;8.43;5.60;;;;;;;12.30;100.00;98246.47;5140894;27;20038;-46
2022/05/17 09:00:55;;;;;;;9.57;5.13;;;;;;;12.25;100.00;98240.72;5138607;27;20042;-42
2022/05/17 09:03:52;;;;;;;6.63;4.90;;;;;;;12.15;100.00;98229.22;5137284;27;20059;-43
2022/05/17 09:06:21;;;;;;;7.63;5.00;;;;;;;12.19;100.00;98246.34;5162239;27;20041;-51
2022/05/17 09:08:57;;;;;;;11.63;7.53;;;;;;;12.15;100.00;98248.28;5159649;27;20489;-44
2022/05/17 09:11:29;;;;;;;7.70;5.28;;;;;;;12.06;100.00;98238.47;5152936;27;20569;-45
2022/05/17 09:14:07;;;;;;;7.10;5.47;;;;;;;12.07;100.00;98242.75;5152704;27;20140;-43
2022/05/17 09:16:36;;;;;;;8.63;6.13;;;;;;;12.05;100.00;98243.75;5173274;27;20090;-43
2022/05/17 09:19:02;;;;;;;10.32;6.00;;;;;;;12.02;100.00;98244.81;5155938;27;20057;-44
2022/05/17 09:21:34;;;;;;;7.72;5.57;;;;;;;12.03;100.00;98237.81;5142416;27;20134;-43
2022/05/17 09:24:12;;;;;;;7.90;5.10;;;;;;;12.05;100.00;98246.38;5145291;27;20034;-44
2022/05/17 09:26:39;;;;;;;11.60;6.32;;;;;;;12.05;100.00;98244.59;5174955;27;20568;-43
2022/05/17 09:29:17;;;;;;;10.52;6.28;;;;;;;12.11;100.00;98241.59;5164253;27;20062;-43
2022/05/17 09:31:53;;;;;;;6.78;5.72;;;;;;;12.09;100.00;98250.47;5151138;27;20038;-43
2022/05/17 09:34:30;;;;;;;8.95;6.13;;;;;;;12.04;100.00;98250.72;5175563;27;20484;-42
2022/05/17 09:36:57;;;;;;;9.23;6.05;;;;;;;11.98;100.00;98245.94;5156406;27;20061;-43
2022/05/17 09:39:26;;;;;;;15.13;7.13;;;;;;;11.94;100.00;98247.03;5156473;27;20030;-43
2022/05/17 09:41:56;;;;;;;10.45;6.03;;;;;;;11.91;100.00;98251.59;5171776;27;20034;-43
2022/05/17 09:44:24;;;;;;;7.55;5.22;;;;;;;11.92;100.00;98255.91;5171176;27;20042;-42
2022/05/17 09:46:56;;;;;;;9.13;5.50;;;;;;;11.81;100.00;98235.72;5156850;27;20061;-42
2022/05/17 09:53:00;;;;;;;14.73;8.63;;;;;;;11.85;100.00;98255.44;5173559;27;20121;-43
2022/05/17 09:55:25;;;;;;;6.80;5.57;;;;;;;11.79;100.00;98248.84;5141025;27;20081;-43
2022/05/17 09:57:52;;;;;;;7.05;6.00;;;;;;;11.76;100.00;98249.03;5174983;27;20038;-43
2022/05/17 10:00:23;;;;;;;9.55;6.80;;;;;;;11.85;100.00;98258.03;5172724;27;20045;-43
2022/05/17 10:02:51;;;;;;;8.52;5.80;;;;;;;11.84;100.00;98259.81;5154798;27;20103;-43
2022/05/17 10:05:20;;;;;;;7.05;5.70;;;;;;;11.86;100.00;98263.16;5154703;27;20042;-42
2022/05/17 10:07:55;;;;;;;7.90;5.43;;;;;;;11.89;100.00;98252.53;5156669;27;20073;-42
2022/05/17 10:10:30;;;;;;;7.43;5.57;;;;;;;11.91;100.00;98260.25;5168128;27;20049;-45
2022/05/17 10:13:04;;;;;;;10.70;6.15;;;;;;;11.98;100.00;98255.50;5160453;27;20083;-44
2022/05/17 10:15:32;;;;;;;8.05;5.43;;;;;;;12.02;100.00;98252.63;5144301;27;20129;-43
2022/05/17 10:18:29;;;;;;;6.55;5.28;;;;;;;12.06;100.00;98250.66;5161088;27;20413;-45
2022/05/17 10:21:00;;;;;;;8.45;5.03;;;;;;;12.05;100.00;98247.19;5162004;27;20509;-45
2022/05/17 10:24:00;;;;;;;9.75;6.65;;;;;;;12.09;100.00;98246.06;5141359;27;20430;-45
2022/05/17 10:27:05;;;;;;;9.88;5.47;;;;;;;12.00;100.00;98245.81;5124869;27;20053;-43
2022/05/17 10:29:51;;;;;;;9.40;5.80;;;;;;;12.02;100.00;98257.00;5131281;27;20042;-42
2022/05/17 10:32:31;;;;;;;8.52;5.68;;;;;;;12.00;100.00;98264.03;5160657;27;20044;-44
2022/05/17 10:35:22;;;;;;;7.20;5.78;;;;;;;12.01;100.00;98261.34;5143275;27;20465;-43
2022/05/17 10:37:54;;;;;;;8.60;5.68;;;;;;;12.03;100.00;98259.50;5144018;27;20532;-41
2022/05/17 10:40:24;;;;;;;8.43;5.70;;;;;;;12.06;100.00;98266.28;5144430;27;20137;-42
2022/05/17 10:42:51;;;;;;;7.35;5.55;;;;;;;12.02;100.00;98255.22;5139847;27;20450;-45
2022/05/17 10:45:19;;;;;;;8.95;5.07;;;;;;;12.14;100.00;98271.84;5128273;27;20057;-42
2022/05/17 10:47:50;;;;;;;8.05;4.90;;;;;;;12.13;100.00;98259.75;5161825;27;20042;-42
2022/05/17 10:50:23;;;;;;;9.13;5.38;;;;;;;12.25;100.00;98277.19;5149359;27;20043;-44
2022/05/17 10:53:32;;;;;;;7.55;5.00;;;;;;;12.29;100.00;98270.88;5143204;27;20497;-50
2022/05/17 10:56:03;;;;;;;9.35;5.32;;;;;;;12.41;100.00;98274.44;5117962;27;20054;-42
2022/05/17 10:58:44;;;;;;;7.78;5.03;;;;;;;12.55;100.00;98269.19;5163142;27;20046;-43
2022/05/17 11:01:32;;;;;;;6.18;4.80;;;;;;;12.69;100.00;98269.13;5144252;27;20038;-44
2022/05/17 11:04:26;;;;;;;8.00;4.93;;;;;;;12.75;100.00;98271.34;5141337;27;20046;-43
2022/05/17 11:07:40;;;;;;;7.85;4.72;;;;;;;12.81;100.00;98272.72;5160924;27;20034;-42
2022/05/17 11:10:15;;;;;;;12.88;6.20;;;;;;;12.75;100.00;98268.72;5152659;27;20548;-43
2022/05/17 11:12:48;;;;;;;16.95;5.30;;;;;;;12.78;100.00;98272.91;5118816;27;20049;-43
2022/05/17 11:15:22;;;;;;;56.95;9.63;;;;;;;12.74;100.00;98265.28;5142706;27;20070;-43
2022/05/17 11:17:58;;;;;;;19.77;5.90;;;;;;;12.64;100.00;98260.78;5148328;27;20465;-42
2022/05/17 11:20:26;;;;;;;28.30;7.10;;;;;;;12.72;100.00;98274.97;5136119;27;20418;-42
2022/05/17 11:23:25;;;;;;;6.15;4.75;;;;;;;12.81;100.00;98272.72;5114313;27;20129;-42
2022/05/17 11:25:57;;;;;;;8.48;5.20;;;;;;;12.90;100.00;98275.53;5158997;27;20026;-43
2022/05/17 11:28:33;;;;;;;9.35;6.40;;;;;;;12.89;100.00;98279.09;5162592;27;20055;-42
2022/05/17 11:31:04;;;;;;;25.00;7.15;;;;;;;12.83;100.00;98282.09;5164576;27;20163;-43
2022/05/17 11:33:41;;;;;;;10.48;6.93;;;;;;;12.75;100.00;98281.78;5148080;27;20041;-42
2022/05/17 11:36:12;;;;;;;6.95;5.30;;;;;;;12.73;100.00;98286.25;5166234;27;20038;-42
2022/05/17 11:38:47;;;;;;;5.15;4.60;;;;;;;12.69;100.00;98280.41;5144623;27;20589;-41
2022/05/17 11:41:19;;;;;;;10.27;5.40;;;;;;;12.67;100.00;98291.84;5120990;27;20103;-41
2022/05/17 11:43:51;;;;;;;7.82;4.68;;;;;;;12.66;100.00;98293.66;5156407;27;20046;-43
2022/05/17 11:46:29;;;;;;;6.68;4.97;;;;;;;12.73;100.00;98291.44;5134938;27;20050;-41